sensor_id;sensor_type;location;lat;lon;timestamp;pressure;altitude;pressure_sealevel;temperature;humidity
6528;BME280;64597;42.664;23.256;2023-05-07T00:01:09;94796.06;;;11.92;61.04
6528;BME280;64597;42.664;23.256;2023-05-07T00:03:44;94810.91;;;11.93;61.29
6528;BME280;64597;42.664;23.256;2023-05-07T00:06:15;94803.44;;;11.90;61.58
6528;BME280;64597;42.664;23.256;2023-05-07T00:08:49;94803.91;;;11.87;61.43
6528;BME280;64597;42.664;23.256;2023-05-07T00:11:23;94788.81;;;11.71;61.94
6528;BME280;64597;42.664;23.256;2023-05-07T00:14:01;94795.13;;;11.70;61.80
6528;BME280;64597;42.664;23.256;2023-05-07T00:16:52;94795.13;;;11.70;62.11
6528;BME280;64597;42.664;23.256;2023-05-07T00:19:26;94800.91;;;11.67;62.90
6528;BME280;64597;42.664;23.256;2023-05-07T00:22:08;94795.22;;;11.63;63.14
6528;BME280;64597;42.664;23.256;2023-05-07T00:24:53;94790.75;;;11.64;63.35
6528;BME280;64597;42.664;23.256;2023-05-07T00:27:28;94803.06;;;11.58;63.42
6528;BME280;64597;42.664;23.256;2023-05-07T00:30:03;94790.06;;;11.57;63.17
6528;BME280;64597;42.664;23.256;2023-05-07T00:32:38;94786.66;;;11.45;63.37
6528;BME280;64597;42.664;23.256;2023-05-07T00:35:09;94798.66;;;11.36;63.54
6528;BME280;64597;42.664;23.256;2023-05-07T00:37:45;94793.81;;;11.33;63.57
6528;BME280;64597;42.664;23.256;2023-05-07T00:40:23;94792.56;;;11.35;63.38
6528;BME280;64597;42.664;23.256;2023-05-07T00:42:55;94783.06;;;11.23;63.25
6528;BME280;64597;42.664;23.256;2023-05-07T00:45:28;94798.31;;;11.32;62.92
6528;BME280;64597;42.664;23.256;2023-05-07T00:48:03;94791.19;;;11.33;62.98
6528;BME280;64597;42.664;23.256;2023-05-07T00:50:38;94797.03;;;11.35;62.18
6528;BME280;64597;42.664;23.256;2023-05-07T00:53:13;94804.28;;;11.28;62.77
6528;BME280;64597;42.664;23.256;2023-05-07T00:55:49;94802.09;;;11.25;62.82
6528;BME280;64597;42.664;23.256;2023-05-07T00:58:21;94790.75;;;11.13;63.46
6528;BME280;64597;42.664;23.256;2023-05-07T01:00:55;94797.75;;;11.19;62.97
6528;BME280;64597;42.664;23.256;2023-05-07T01:03:32;94801.78;;;11.10;63.88
6528;BME280;64597;42.664;23.256;2023-05-07T01:06:07;94800.84;;;11.04;63.76
6528;BME280;64597;42.664;23.256;2023-05-07T01:08:45;94798.91;;;11.11;63.95
6528;BME280;64597;42.664;23.256;2023-05-07T01:11:19;94792.00;;;11.10;64.20
6528;BME280;64597;42.664;23.256;2023-05-07T01:13:54;94798.47;;;11.03;64.43
6528;BME280;64597;42.664;23.256;2023-05-07T01:16:30;94803.97;;;11.01;64.82
6528;BME280;64597;42.664;23.256;2023-05-07T01:19:05;94803.72;;;11.03;64.39
6528;BME280;64597;42.664;23.256;2023-05-07T01:21:39;94796.97;;;10.95;64.35
6528;BME280;64597;42.664;23.256;2023-05-07T01:24:22;94796.16;;;10.95;64.34
6528;BME280;64597;42.664;23.256;2023-05-07T01:26:57;94788.94;;;10.78;64.36
6528;BME280;64597;42.664;23.256;2023-05-07T01:29:31;94796.88;;;10.78;64.47
6528;BME280;64597;42.664;23.256;2023-05-07T01:32:07;94800.31;;;10.91;64.49
6528;BME280;64597;42.664;23.256;2023-05-07T01:34:43;94804.09;;;10.83;64.29
6528;BME280;64597;42.664;23.256;2023-05-07T01:37:18;94803.97;;;10.78;64.55
6528;BME280;64597;42.664;23.256;2023-05-07T01:39:49;94783.69;;;10.67;64.24
6528;BME280;64597;42.664;23.256;2023-05-07T01:42:22;94794.53;;;10.59;64.87
6528;BME280;64597;42.664;23.256;2023-05-07T01:44:57;94789.50;;;10.57;65.62
6528;BME280;64597;42.664;23.256;2023-05-07T01:47:30;94783.78;;;10.60;65.38
6528;BME280;64597;42.664;23.256;2023-05-07T01:50:09;94781.38;;;10.59;65.16
6528;BME280;64597;42.664;23.256;2023-05-07T01:52:43;94758.13;;;10.44;64.89
6528;BME280;64597;42.664;23.256;2023-05-07T01:55:19;94784.25;;;10.57;64.95
6528;BME280;64597;42.664;23.256;2023-05-07T01:57:54;94774.59;;;10.51;65.21
6528;BME280;64597;42.664;23.256;2023-05-07T02:00:27;94774.28;;;10.48;64.71
6528;BME280;64597;42.664;23.256;2023-05-07T02:03:02;94772.88;;;10.45;65.20
6528;BME280;64597;42.664;23.256;2023-05-07T02:05:35;94767.03;;;10.43;64.95
6528;BME280;64597;42.664;23.256;2023-05-07T02:08:08;94773.34;;;10.42;64.75
6528;BME280;64597;42.664;23.256;2023-05-07T02:10:40;94763.84;;;10.41;65.00
6528;BME280;64597;42.664;23.256;2023-05-07T02:13:14;94757.41;;;10.37;65.38
6528;BME280;64597;42.664;23.256;2023-05-07T02:15:51;94759.72;;;10.34;65.39
6528;BME280;64597;42.664;23.256;2023-05-07T02:18:25;94757.50;;;10.31;65.60
6528;BME280;64597;42.664;23.256;2023-05-07T02:20:59;94757.06;;;10.34;65.81
6528;BME280;64597;42.664;23.256;2023-05-07T02:23:38;94765.50;;;10.24;65.23
6528;BME280;64597;42.664;23.256;2023-05-07T02:26:24;94760.72;;;10.21;64.99
6528;BME280;64597;42.664;23.256;2023-05-07T02:29:05;94765.75;;;10.23;65.36
6528;BME280;64597;42.664;23.256;2023-05-07T02:31:43;94766.56;;;10.23;65.14
6528;BME280;64597;42.664;23.256;2023-05-07T02:34:23;94771.25;;;10.21;65.28
6528;BME280;64597;42.664;23.256;2023-05-07T02:36:54;94766.75;;;10.10;66.08
6528;BME280;64597;42.664;23.256;2023-05-07T02:39:27;94755.81;;;9.95;66.26
6528;BME280;64597;42.664;23.256;2023-05-07T02:41:58;94750.41;;;9.90;66.06
6528;BME280;64597;42.664;23.256;2023-05-07T02:44:34;94762.25;;;9.99;66.22
6528;BME280;64597;42.664;23.256;2023-05-07T02:47:14;94764.41;;;10.02;66.04
6528;BME280;64597;42.664;23.256;2023-05-07T02:50:00;94772.91;;;10.04;66.27
6528;BME280;64597;42.664;23.256;2023-05-07T02:52:29;94790.19;;;10.00;66.53
6528;BME280;64597;42.664;23.256;2023-05-07T02:55:02;94771.81;;;9.93;66.88
6528;BME280;64597;42.664;23.256;2023-05-07T02:57:42;94771.81;;;9.93;66.90
6528;BME280;64597;42.664;23.256;2023-05-07T03:00:28;94768.28;;;9.88;67.17
6528;BME280;64597;42.664;23.256;2023-05-07T03:03:02;94779.69;;;9.82;68.05
6528;BME280;64597;42.664;23.256;2023-05-07T03:05:33;94789.00;;;9.84;67.85
6528;BME280;64597;42.664;23.256;2023-05-07T03:08:20;94780.50;;;9.82;67.29
6528;BME280;64597;42.664;23.256;2023-05-07T03:10:55;94784.97;;;9.82;67.16
6528;BME280;64597;42.664;23.256;2023-05-07T03:13:32;94790.59;;;9.85;66.47
6528;BME280;64597;42.664;23.256;2023-05-07T03:16:11;94792.28;;;9.80;67.18
6528;BME280;64597;42.664;23.256;2023-05-07T03:18:49;94794.66;;;9.70;66.76
6528;BME280;64597;42.664;23.256;2023-05-07T03:21:23;94766.75;;;9.51;67.69
6528;BME280;64597;42.664;23.256;2023-05-07T03:23:56;94795.97;;;9.61;68.04
6528;BME280;64597;42.664;23.256;2023-05-07T03:26:31;94791.28;;;9.63;67.35
6528;BME280;64597;42.664;23.256;2023-05-07T03:29:04;94773.41;;;9.53;67.06
6528;BME280;64597;42.664;23.256;2023-05-07T03:31:42;94802.78;;;9.68;68.03
6528;BME280;64597;42.664;23.256;2023-05-07T03:34:16;94800.59;;;9.65;67.63
6528;BME280;64597;42.664;23.256;2023-05-07T03:36:51;94800.47;;;9.60;67.93
6528;BME280;64597;42.664;23.256;2023-05-07T03:39:24;94812.00;;;9.59;67.86
6528;BME280;64597;42.664;23.256;2023-05-07T03:42:03;94804.34;;;9.58;67.63
6528;BME280;64597;42.664;23.256;2023-05-07T03:44:34;94805.66;;;9.67;67.18
6528;BME280;64597;42.664;23.256;2023-05-07T03:47:05;94730.44;;;9.11;66.81
6528;BME280;64597;42.664;23.256;2023-05-07T03:49:47;94805.03;;;9.65;67.08
6528;BME280;64597;42.664;23.256;2023-05-07T03:52:28;94809.44;;;9.71;67.61
6528;BME280;64597;42.664;23.256;2023-05-07T03:55:00;94809.44;;;9.71;68.06
6528;BME280;64597;42.664;23.256;2023-05-07T03:57:33;94807.38;;;9.73;67.28
6528;BME280;64597;42.664;23.256;2023-05-07T04:00:07;94804.19;;;9.71;68.00
6528;BME280;64597;42.664;23.256;2023-05-07T04:02:51;94815.41;;;9.78;66.95
6528;BME280;64597;42.664;23.256;2023-05-07T04:05:30;94829.50;;;9.83;67.25
6528;BME280;64597;42.664;23.256;2023-05-07T04:08:06;94826.22;;;9.88;68.08
6528;BME280;64597;42.664;23.256;2023-05-07T04:10:42;94823.81;;;9.86;67.99
6528;BME280;64597;42.664;23.256;2023-05-07T04:13:11;94841.56;;;9.91;67.91
6528;BME280;64597;42.664;23.256;2023-05-07T04:15:43;94844.31;;;9.96;67.33
6528;BME280;64597;42.664;23.256;2023-05-07T04:18:20;94834.84;;;9.95;67.88
6528;BME280;64597;42.664;23.256;2023-05-07T04:24:21;94846.34;;;10.12;66.90
6528;BME280;64597;42.664;23.256;2023-05-07T04:26:57;94851.47;;;10.25;66.88
6528;BME280;64597;42.664;23.256;2023-05-07T04:29:29;94840.91;;;10.25;66.64
6528;BME280;64597;42.664;23.256;2023-05-07T04:32:11;94845.53;;;10.41;67.02
6528;BME280;64597;42.664;23.256;2023-05-07T04:34:44;94858.97;;;10.51;66.46
6528;BME280;64597;42.664;23.256;2023-05-07T04:37:18;94852.78;;;10.57;66.79
6528;BME280;64597;42.664;23.256;2023-05-07T04:39:51;94864.97;;;10.70;66.30
6528;BME280;64597;42.664;23.256;2023-05-07T04:42:22;94864.75;;;10.83;66.00
6528;BME280;64597;42.664;23.256;2023-05-07T04:44:58;94856.13;;;10.88;65.92
6528;BME280;64597;42.664;23.256;2023-05-07T04:47:37;94860.19;;;11.02;66.04
6528;BME280;64597;42.664;23.256;2023-05-07T04:50:33;94857.41;;;11.08;65.73
6528;BME280;64597;42.664;23.256;2023-05-07T04:53:06;94854.53;;;11.21;65.67
6528;BME280;64597;42.664;23.256;2023-05-07T04:59:28;94851.41;;;11.59;65.59
6528;BME280;64597;42.664;23.256;2023-05-07T05:02:04;94847.13;;;11.70;65.39
6528;BME280;64597;42.664;23.256;2023-05-07T05:04:42;94854.75;;;11.94;65.12
6528;BME280;64597;42.664;23.256;2023-05-07T05:07:18;94857.22;;;12.12;64.66
6528;BME280;64597;42.664;23.256;2023-05-07T05:09:47;94856.47;;;12.28;64.27
6528;BME280;64597;42.664;23.256;2023-05-07T05:12:21;94856.97;;;12.42;63.83
6528;BME280;64597;42.664;23.256;2023-05-07T05:15:03;94853.09;;;12.61;63.30
6528;BME280;64597;42.664;23.256;2023-05-07T05:17:44;94854.13;;;12.77;63.45
6528;BME280;64597;42.664;23.256;2023-05-07T05:20:17;94843.53;;;12.93;62.91
6528;BME280;64597;42.664;23.256;2023-05-07T05:22:56;94848.84;;;13.10;62.49
6528;BME280;64597;42.664;23.256;2023-05-07T05:25:37;94840.34;;;13.25;62.15
6528;BME280;64597;42.664;23.256;2023-05-07T05:28:20;94849.53;;;13.39;61.46
6528;BME280;64597;42.664;23.256;2023-05-07T05:31:07;94849.97;;;13.52;61.43
6528;BME280;64597;42.664;23.256;2023-05-07T05:33:46;94859.78;;;13.73;61.02
6528;BME280;64597;42.664;23.256;2023-05-07T05:36:20;94846.53;;;13.73;60.44
6528;BME280;64597;42.664;23.256;2023-05-07T05:38:58;94857.97;;;14.00;60.04
6528;BME280;64597;42.664;23.256;2023-05-07T05:41:47;94849.75;;;14.24;59.05
6528;BME280;64597;42.664;23.256;2023-05-07T05:44:26;94857.16;;;14.43;59.24
6528;BME280;64597;42.664;23.256;2023-05-07T05:46:59;94850.78;;;14.71;58.86
6528;BME280;64597;42.664;23.256;2023-05-07T05:49:30;94855.16;;;14.87;57.91
6528;BME280;64597;42.664;23.256;2023-05-07T05:52:17;94843.69;;;15.13;56.55
6528;BME280;64597;42.664;23.256;2023-05-07T05:55:00;94856.31;;;15.38;56.75
6528;BME280;64597;42.664;23.256;2023-05-07T05:57:38;94829.34;;;15.56;55.83
6528;BME280;64597;42.664;23.256;2023-05-07T06:00:20;94851.66;;;16.12;54.58
6528;BME280;64597;42.664;23.256;2023-05-07T06:03:01;94841.28;;;16.15;53.83
6528;BME280;64597;42.664;23.256;2023-05-07T06:05:41;94847.22;;;16.42;53.73
6528;BME280;64597;42.664;23.256;2023-05-07T06:08:22;94841.72;;;16.74;53.39
6528;BME280;64597;42.664;23.256;2023-05-07T06:10:57;94855.31;;;17.18;52.12
6528;BME280;64597;42.664;23.256;2023-05-07T06:13:38;94849.94;;;17.58;50.54
6528;BME280;64597;42.664;23.256;2023-05-07T06:16:20;94847.94;;;18.09;49.66
6528;BME280;64597;42.664;23.256;2023-05-07T06:19:07;94840.78;;;18.53;48.27
6528;BME280;64597;42.664;23.256;2023-05-07T06:21:39;94843.72;;;18.90;47.32
6528;BME280;64597;42.664;23.256;2023-05-07T06:24:19;94818.31;;;19.22;45.54
6528;BME280;64597;42.664;23.256;2023-05-07T06:26:50;94837.16;;;19.69;45.01
6528;BME280;64597;42.664;23.256;2023-05-07T06:29:26;94826.59;;;19.83;44.25
6528;BME280;64597;42.664;23.256;2023-05-07T06:32:19;94809.63;;;20.11;43.93
6528;BME280;64597;42.664;23.256;2023-05-07T06:35:13;94833.22;;;20.51;42.15
6528;BME280;64597;42.664;23.256;2023-05-07T06:37:53;94817.09;;;20.56;42.08
6528;BME280;64597;42.664;23.256;2023-05-07T06:40:25;94800.78;;;20.71;42.25
6528;BME280;64597;42.664;23.256;2023-05-07T06:42:58;94820.41;;;21.36;41.14
6528;BME280;64597;42.664;23.256;2023-05-07T06:45:35;94818.19;;;21.70;40.10
6528;BME280;64597;42.664;23.256;2023-05-07T06:48:14;94815.13;;;21.90;39.67
6528;BME280;64597;42.664;23.256;2023-05-07T06:50:54;94812.84;;;21.97;38.93
6528;BME280;64597;42.664;23.256;2023-05-07T06:53:30;94806.63;;;22.38;38.33
6528;BME280;64597;42.664;23.256;2023-05-07T06:56:03;94803.69;;;22.75;37.67
6528;BME280;64597;42.664;23.256;2023-05-07T06:58:40;94798.25;;;23.11;36.14
6528;BME280;64597;42.664;23.256;2023-05-07T07:01:13;94807.50;;;23.40;36.30
6528;BME280;64597;42.664;23.256;2023-05-07T07:04:02;94801.31;;;23.70;35.85
6528;BME280;64597;42.664;23.256;2023-05-07T07:06:34;94805.97;;;23.87;35.09
6528;BME280;64597;42.664;23.256;2023-05-07T07:09:04;94796.59;;;24.15;34.40
6528;BME280;64597;42.664;23.256;2023-05-07T07:11:32;94798.09;;;24.47;34.03
6528;BME280;64597;42.664;23.256;2023-05-07T07:14:00;94800.31;;;24.62;33.86
6528;BME280;64597;42.664;23.256;2023-05-07T07:16:40;94800.38;;;24.79;33.41
6528;BME280;64597;42.664;23.256;2023-05-07T07:19:15;94799.53;;;24.70;33.25
6528;BME280;64597;42.664;23.256;2023-05-07T07:21:47;94785.56;;;24.60;33.09
6528;BME280;64597;42.664;23.256;2023-05-07T07:24:16;94795.59;;;24.93;32.28
6528;BME280;64597;42.664;23.256;2023-05-07T07:26:51;94783.69;;;25.11;32.39
6528;BME280;64597;42.664;23.256;2023-05-07T07:29:30;94792.53;;;25.29;32.55
6528;BME280;64597;42.664;23.256;2023-05-07T07:32:03;94789.59;;;25.68;32.31
6528;BME280;64597;42.664;23.256;2023-05-07T07:34:42;94786.31;;;25.63;31.27
6528;BME280;64597;42.664;23.256;2023-05-07T07:37:15;94788.13;;;25.88;30.26
6528;BME280;64597;42.664;23.256;2023-05-07T07:39:47;94794.88;;;26.02;30.80
6528;BME280;64597;42.664;23.256;2023-05-07T07:42:23;94795.88;;;26.27;30.69
6528;BME280;64597;42.664;23.256;2023-05-07T07:44:56;94803.34;;;26.59;29.58
6528;BME280;64597;42.664;23.256;2023-05-07T07:47:33;94799.41;;;26.98;29.34
6528;BME280;64597;42.664;23.256;2023-05-07T07:50:14;94800.91;;;27.28;28.13
6528;BME280;64597;42.664;23.256;2023-05-07T07:52:51;94802.88;;;27.40;28.03
6528;BME280;64597;42.664;23.256;2023-05-07T07:55:22;94802.16;;;27.51;27.73
6528;BME280;64597;42.664;23.256;2023-05-07T07:58:00;94796.94;;;27.58;27.37
6528;BME280;64597;42.664;23.256;2023-05-07T08:00:35;94791.16;;;27.48;27.73
6528;BME280;64597;42.664;23.256;2023-05-07T08:03:10;94790.66;;;27.34;28.14
6528;BME280;64597;42.664;23.256;2023-05-07T08:05:40;94795.94;;;27.63;28.09
6528;BME280;64597;42.664;23.256;2023-05-07T08:08:12;94789.81;;;27.99;27.35
6528;BME280;64597;42.664;23.256;2023-05-07T08:10:42;94784.28;;;28.19;26.36
6528;BME280;64597;42.664;23.256;2023-05-07T08:13:18;94787.56;;;28.49;26.63
6528;BME280;64597;42.664;23.256;2023-05-07T08:15:58;94793.97;;;28.81;26.38
6528;BME280;64597;42.664;23.256;2023-05-07T08:18:28;94783.81;;;29.05;26.38
6528;BME280;64597;42.664;23.256;2023-05-07T08:20:57;94777.25;;;29.18;25.38
6528;BME280;64597;42.664;23.256;2023-05-07T08:23:30;94786.91;;;29.59;25.84
6528;BME280;64597;42.664;23.256;2023-05-07T08:25:57;94744.66;;;29.62;24.60
6528;BME280;64597;42.664;23.256;2023-05-07T08:28:29;94772.56;;;30.05;24.36
6528;BME280;64597;42.664;23.256;2023-05-07T08:31:08;94776.78;;;30.19;23.93
6528;BME280;64597;42.664;23.256;2023-05-07T08:33:44;94779.59;;;30.06;24.17
6528;BME280;64597;42.664;23.256;2023-05-07T08:36:14;94781.78;;;30.17;24.13
6528;BME280;64597;42.664;23.256;2023-05-07T08:38:51;94770.72;;;30.25;23.09
6528;BME280;64597;42.664;23.256;2023-05-07T08:41:26;94774.94;;;30.38;23.56
6528;BME280;64597;42.664;23.256;2023-05-07T08:43:59;94773.94;;;30.62;22.67
6528;BME280;64597;42.664;23.256;2023-05-07T08:46:38;94760.81;;;30.67;22.50
6528;BME280;64597;42.664;23.256;2023-05-07T08:49:18;94765.91;;;30.69;22.83
6528;BME280;64597;42.664;23.256;2023-05-07T08:51:51;94759.94;;;30.98;22.71
6528;BME280;64597;42.664;23.256;2023-05-07T08:54:27;94758.34;;;30.78;22.94
6528;BME280;64597;42.664;23.256;2023-05-07T08:57:08;94755.53;;;31.09;23.04
6528;BME280;64597;42.664;23.256;2023-05-07T08:59:47;94764.56;;;31.13;22.80
6528;BME280;64597;42.664;23.256;2023-05-07T09:02:24;94754.28;;;31.26;22.56
6528;BME280;64597;42.664;23.256;2023-05-07T09:05:04;94750.19;;;31.16;22.39
6528;BME280;64597;42.664;23.256;2023-05-07T09:07:41;94743.19;;;31.15;22.06
6528;BME280;64597;42.664;23.256;2023-05-07T09:10:25;94744.53;;;31.06;22.20
6528;BME280;64597;42.664;23.256;2023-05-07T09:13:22;94742.50;;;30.83;21.64
6528;BME280;64597;42.664;23.256;2023-05-07T09:16:01;94744.19;;;30.53;22.40
6528;BME280;64597;42.664;23.256;2023-05-07T09:18:54;94725.19;;;30.06;22.37
6528;BME280;64597;42.664;23.256;2023-05-07T09:21:37;94746.06;;;30.34;23.13
6528;BME280;64597;42.664;23.256;2023-05-07T09:24:09;94738.50;;;30.43;22.43
6528;BME280;64597;42.664;23.256;2023-05-07T09:26:49;94733.97;;;30.85;22.54
6528;BME280;64597;42.664;23.256;2023-05-07T09:29:34;94732.19;;;31.12;22.38
6528;BME280;64597;42.664;23.256;2023-05-07T09:32:09;94733.72;;;31.09;22.57
6528;BME280;64597;42.664;23.256;2023-05-07T09:34:52;94732.84;;;31.43;21.27
6528;BME280;64597;42.664;23.256;2023-05-07T09:37:25;94726.78;;;30.77;20.41
6528;BME280;64597;42.664;23.256;2023-05-07T09:39:58;94730.06;;;30.48;20.89
6528;BME280;64597;42.664;23.256;2023-05-07T09:42:36;94713.25;;;30.61;21.97
6528;BME280;64597;42.664;23.256;2023-05-07T09:45:12;94733.22;;;30.50;22.62
6528;BME280;64597;42.664;23.256;2023-05-07T09:48:08;94725.72;;;30.62;22.48
6528;BME280;64597;42.664;23.256;2023-05-07T09:50:57;94721.06;;;30.82;22.74
6528;BME280;64597;42.664;23.256;2023-05-07T09:53:38;94703.59;;;30.64;21.69
6528;BME280;64597;42.664;23.256;2023-05-07T09:56:17;94718.75;;;30.46;22.17
6528;BME280;64597;42.664;23.256;2023-05-07T09:58:52;94719.94;;;30.29;22.33
6528;BME280;64597;42.664;23.256;2023-05-07T10:01:29;94724.84;;;29.92;21.62
6528;BME280;64597;42.664;23.256;2023-05-07T10:04:04;94714.84;;;29.96;22.21
6528;BME280;64597;42.664;23.256;2023-05-07T10:06:52;94708.44;;;30.04;22.16
6528;BME280;64597;42.664;23.256;2023-05-07T10:09:35;94717.81;;;29.91;22.81
6528;BME280;64597;42.664;23.256;2023-05-07T10:12:10;94716.25;;;29.90;22.96
6528;BME280;64597;42.664;23.256;2023-05-07T10:14:53;94717.84;;;29.76;22.36
6528;BME280;64597;42.664;23.256;2023-05-07T10:17:25;94705.34;;;29.59;22.90
6528;BME280;64597;42.664;23.256;2023-05-07T10:19:55;94706.91;;;29.29;22.64
6528;BME280;64597;42.664;23.256;2023-05-07T10:22:26;94710.56;;;28.93;22.53
6528;BME280;64597;42.664;23.256;2023-05-07T10:25:02;94694.56;;;28.76;22.93
6528;BME280;64597;42.664;23.256;2023-05-07T10:27:46;94697.78;;;28.94;22.37
6528;BME280;64597;42.664;23.256;2023-05-07T10:30:50;94691.31;;;28.98;21.99
6528;BME280;64597;42.664;23.256;2023-05-07T10:33:28;94679.34;;;28.87;22.20
6528;BME280;64597;42.664;23.256;2023-05-07T10:36:04;94685.53;;;29.00;21.66
6528;BME280;64597;42.664;23.256;2023-05-07T10:38:37;94678.06;;;28.97;21.98
6528;BME280;64597;42.664;23.256;2023-05-07T10:41:11;94667.16;;;29.09;22.57
6528;BME280;64597;42.664;23.256;2023-05-07T10:43:51;94678.91;;;29.13;22.43
6528;BME280;64597;42.664;23.256;2023-05-07T10:46:22;94672.56;;;29.21;21.81
6528;BME280;64597;42.664;23.256;2023-05-07T10:52:21;94676.69;;;28.75;21.62
6528;BME280;64597;42.664;23.256;2023-05-07T10:55:29;94670.25;;;28.28;22.57
6528;BME280;64597;42.664;23.256;2023-05-07T10:58:28;94665.69;;;28.44;22.90
6528;BME280;64597;42.664;23.256;2023-05-07T10:58:28;94665.69;;;28.44;22.90
6528;BME280;64597;42.664;23.256;2023-05-07T11:01:07;94668.75;;;28.42;22.39
6528;BME280;64597;42.664;23.256;2023-05-07T11:04:17;94671.75;;;28.13;22.82
6528;BME280;64597;42.664;23.256;2023-05-07T11:15:45;94658.66;;;27.67;22.99
6528;BME280;64597;42.664;23.256;2023-05-07T11:18:21;94661.81;;;27.93;23.52
6528;BME280;64597;42.664;23.256;2023-05-07T11:21:07;94661.63;;;27.98;22.50
6528;BME280;64597;42.664;23.256;2023-05-07T11:26:19;94645.97;;;28.19;22.51
6528;BME280;64597;42.664;23.256;2023-05-07T11:28:53;94648.41;;;28.36;23.92
6528;BME280;64597;42.664;23.256;2023-05-07T11:31:33;94652.91;;;28.57;23.77
6528;BME280;64597;42.664;23.256;2023-05-07T11:34:29;94636.13;;;28.67;21.12
6528;BME280;64597;42.664;23.256;2023-05-07T11:37:09;94636.16;;;28.54;21.81
6528;BME280;64597;42.664;23.256;2023-05-07T11:39:46;94638.75;;;28.63;22.37
6528;BME280;64597;42.664;23.256;2023-05-07T11:42:39;94643.72;;;28.61;22.22
6528;BME280;64597;42.664;23.256;2023-05-07T11:45:23;94636.84;;;28.51;22.43
6528;BME280;64597;42.664;23.256;2023-05-07T11:47:57;94645.09;;;28.55;22.46
6528;BME280;64597;42.664;23.256;2023-05-07T11:50:37;94626.06;;;28.39;22.61
6528;BME280;64597;42.664;23.256;2023-05-07T11:53:37;94631.34;;;28.36;23.22
6528;BME280;64597;42.664;23.256;2023-05-07T11:56:12;94632.94;;;28.37;23.28
6528;BME280;64597;42.664;23.256;2023-05-07T11:58:53;94638.38;;;28.37;23.00
6528;BME280;64597;42.664;23.256;2023-05-07T12:01:31;94619.03;;;28.38;23.30
6528;BME280;64597;42.664;23.256;2023-05-07T12:04:13;94634.06;;;28.36;22.91
6528;BME280;64597;42.664;23.256;2023-05-07T12:07:00;94627.88;;;28.35;22.77
6528;BME280;64597;42.664;23.256;2023-05-07T12:09:41;94621.88;;;28.30;22.77
6528;BME280;64597;42.664;23.256;2023-05-07T12:12:18;94617.91;;;28.27;22.70
6528;BME280;64597;42.664;23.256;2023-05-07T12:14:54;94605.47;;;28.11;22.65
6528;BME280;64597;42.664;23.256;2023-05-07T12:17:33;94618.69;;;28.00;23.56
6528;BME280;64597;42.664;23.256;2023-05-07T12:20:29;94617.50;;;28.13;22.88
6528;BME280;64597;42.664;23.256;2023-05-07T12:23:11;94606.03;;;27.92;22.95
6528;BME280;64597;42.664;23.256;2023-05-07T12:25:45;94601.28;;;28.01;22.50
6528;BME280;64597;42.664;23.256;2023-05-07T12:28:20;94603.97;;;27.89;22.77
6528;BME280;64597;42.664;23.256;2023-05-07T12:30:58;94595.06;;;27.89;22.50
6528;BME280;64597;42.664;23.256;2023-05-07T12:33:29;94597.00;;;27.88;23.29
6528;BME280;64597;42.664;23.256;2023-05-07T12:36:04;94592.38;;;27.77;23.41
6528;BME280;64597;42.664;23.256;2023-05-07T12:38:42;94581.56;;;27.52;22.98
6528;BME280;64597;42.664;23.256;2023-05-07T12:41:29;94592.75;;;27.51;23.20
6528;BME280;64597;42.664;23.256;2023-05-07T12:44:10;94584.16;;;27.61;23.44
6528;BME280;64597;42.664;23.256;2023-05-07T12:46:38;94586.19;;;27.40;23.79
6528;BME280;64597;42.664;23.256;2023-05-07T12:49:16;94569.00;;;27.24;23.64
6528;BME280;64597;42.664;23.256;2023-05-07T12:51:57;94570.16;;;27.11;23.56
6528;BME280;64597;42.664;23.256;2023-05-07T12:54:38;94569.81;;;27.12;23.71
6528;BME280;64597;42.664;23.256;2023-05-07T12:57:15;94556.38;;;27.04;23.29
6528;BME280;64597;42.664;23.256;2023-05-07T12:59:48;94563.00;;;26.82;23.50
6528;BME280;64597;42.664;23.256;2023-05-07T13:02:21;94557.25;;;26.71;23.67
6528;BME280;64597;42.664;23.256;2023-05-07T13:05:07;94561.25;;;26.65;23.30
6528;BME280;64597;42.664;23.256;2023-05-07T13:07:41;94557.84;;;26.56;23.25
6528;BME280;64597;42.664;23.256;2023-05-07T13:10:30;94538.09;;;26.44;23.71
6528;BME280;64597;42.664;23.256;2023-05-07T13:13:05;94554.44;;;26.47;23.26
6528;BME280;64597;42.664;23.256;2023-05-07T13:15:49;94550.41;;;26.53;23.42
6528;BME280;64597;42.664;23.256;2023-05-07T13:18:21;94541.78;;;26.39;23.32
6528;BME280;64597;42.664;23.256;2023-05-07T13:20:59;94552.22;;;26.61;24.52
6528;BME280;64597;42.664;23.256;2023-05-07T13:23:38;94543.31;;;26.61;24.48
6528;BME280;64597;42.664;23.256;2023-05-07T13:26:19;94543.53;;;26.68;24.27
6528;BME280;64597;42.664;23.256;2023-05-07T13:29:02;94542.53;;;26.60;24.24
6528;BME280;64597;42.664;23.256;2023-05-07T13:31:33;94543.50;;;26.44;24.38
6528;BME280;64597;42.664;23.256;2023-05-07T13:34:11;94537.88;;;26.49;24.69
6528;BME280;64597;42.664;23.256;2023-05-07T13:36:47;94541.19;;;26.66;24.55
6528;BME280;64597;42.664;23.256;2023-05-07T13:39:24;94540.03;;;26.55;24.26
6528;BME280;64597;42.664;23.256;2023-05-07T13:41:58;94543.94;;;26.46;24.20
6528;BME280;64597;42.664;23.256;2023-05-07T13:44:32;94540.22;;;26.38;23.59
6528;BME280;64597;42.664;23.256;2023-05-07T13:47:05;94540.41;;;26.33;24.99
6528;BME280;64597;42.664;23.256;2023-05-07T13:49:44;94522.63;;;26.32;24.82
6528;BME280;64597;42.664;23.256;2023-05-07T13:52:27;94539.88;;;26.40;25.10
6528;BME280;64597;42.664;23.256;2023-05-07T13:55:05;94553.84;;;26.42;25.53
6528;BME280;64597;42.664;23.256;2023-05-07T13:57:37;94545.19;;;26.48;24.63
6528;BME280;64597;42.664;23.256;2023-05-07T14:00:09;94534.81;;;26.38;24.81
6528;BME280;64597;42.664;23.256;2023-05-07T14:02:45;94547.19;;;26.39;24.27
6528;BME280;64597;42.664;23.256;2023-05-07T14:05:21;94552.88;;;26.58;24.57
6528;BME280;64597;42.664;23.256;2023-05-07T14:07:59;94541.47;;;26.41;24.75
6528;BME280;64597;42.664;23.256;2023-05-07T14:10:33;94549.44;;;26.37;24.45
6528;BME280;64597;42.664;23.256;2023-05-07T14:13:07;94553.28;;;26.36;24.47
6528;BME280;64597;42.664;23.256;2023-05-07T14:15:45;94541.09;;;26.30;25.76